Hc Nadja Maria — V2AV4 — position and weather

sailwx.info

Track history (hours):
 
Tides and Currents Weather Stations Pressure Air Temp Water Temp Dewpoint Dewpoint Depression Visibility Wind Speed Wind Dir Waves Ship Positions

Hc Nadja Maria

Last reported at 2015-Aug-02 10:23 UTC. Time now 2015-Aug-02 12:20 UTC.
Position N 29°21' W 094°46'.

Length 130 m; draft 4.8 m.

Type: Cargo ship. MMSI: 304204000.

Date/timePositionNaut miles runAvg speedWind from/ knotsBaromVisibWave heightAir tempDewpointWater temp
2015-Aug-02 10:23N 29°21' W 094°46'911.1
2015-Aug-02 09:34N 29°28' W 094°51'1212.4
2015-Aug-02 08:34N 29°39' W 094°58'9 9.1
2015-Aug-02 07:34N 29°46' W 095°05'6 5.5
2015-Aug-02 06:33N 29°45' W 095°11'5 4.5
2015-Aug-02 05:33N 29°44' W 095°17'0 0.0
2015-Aug-01 04:19N 29°44' W 095°17'3 4.0
2015-Aug-01 03:34N 29°44' W 095°13'  
2015-Jul-29 03:32N 29°45' W 095°10'5 4.8
2015-Jul-29 02:27N 29°45' W 095°04'8 8.4
2015-Jul-29 01:33N 29°40' W 094°58'1111.3
2015-Jul-29 00:33N 29°30' W 094°52'  
Track history (hours):
 
Tides and Currents Weather Stations Pressure Air Temp Water Temp Dewpoint Dewpoint Depression Visibility Wind Speed Wind Dir Waves Ship Positions

Hc Nadja Maria

Last reported at 2015-Aug-02 10:23 UTC. Time now 2015-Aug-02 12:20 UTC.
Position N 29°21' W 094°46'.

Length 130 m; draft 4.8 m.

Type: Cargo ship. MMSI: 304204000.

Date/timePositionNaut miles runAvg speedWind from/ knotsBaromVisibWave heightAir tempDewpointWater temp
2015-Aug-02 10:23N 29°21' W 094°46'911.1
2015-Aug-02 09:34N 29°28' W 094°51'1212.4
2015-Aug-02 08:34N 29°39' W 094°58'9 9.1
2015-Aug-02 07:34N 29°46' W 095°05'6 5.5
2015-Aug-02 06:33N 29°45' W 095°11'5 4.5
2015-Aug-02 05:33N 29°44' W 095°17'0 0.0
2015-Aug-01 04:19N 29°44' W 095°17'3 4.0
2015-Aug-01 03:34N 29°44' W 095°13'  
2015-Jul-29 03:32N 29°45' W 095°10'5 4.8
2015-Jul-29 02:27N 29°45' W 095°04'8 8.4
2015-Jul-29 01:33N 29°40' W 094°58'1111.3
2015-Jul-29 00:33N 29°30' W 094°52'  

Dump ship's entire track history